sensor_id;sensor_type;location;lat;lon;timestamp;temperature;humidity
19164;DHT22;9714;51.208;4.242;2023-04-25T00:01:21;10.20;99.90
19164;DHT22;9714;51.208;4.242;2023-04-25T00:03:48;10.00;99.90
19164;DHT22;9714;51.208;4.242;2023-04-25T00:06:18;9.80;99.90
19164;DHT22;9714;51.208;4.242;2023-04-25T00:08:46;9.90;99.90
19164;DHT22;9714;51.208;4.242;2023-04-25T00:11:13;9.80;99.90
19164;DHT22;9714;51.208;4.242;2023-04-25T00:13:42;10.00;99.90
19164;DHT22;9714;51.208;4.242;2023-04-25T00:16:12;10.00;99.90
19164;DHT22;9714;51.208;4.242;2023-04-25T00:18:42;10.20;99.90
19164;DHT22;9714;51.208;4.242;2023-04-25T00:21:11;10.30;99.90
19164;DHT22;9714;51.208;4.242;2023-04-25T00:23:38;10.30;99.90
19164;DHT22;9714;51.208;4.242;2023-04-25T00:26:05;10.20;99.90
19164;DHT22;9714;51.208;4.242;2023-04-25T00:28:33;10.20;99.90
19164;DHT22;9714;51.208;4.242;2023-04-25T00:31:02;10.10;99.90
19164;DHT22;9714;51.208;4.242;2023-04-25T00:33:32;10.10;99.90
19164;DHT22;9714;51.208;4.242;2023-04-25T00:36:00;10.10;99.90
19164;DHT22;9714;51.208;4.242;2023-04-25T00:38:27;10.00;99.90
19164;DHT22;9714;51.208;4.242;2023-04-25T00:41:00;9.90;99.90
19164;DHT22;9714;51.208;4.242;2023-04-25T00:43:28;10.00;99.90
19164;DHT22;9714;51.208;4.242;2023-04-25T00:45:57;10.10;99.90
19164;DHT22;9714;51.208;4.242;2023-04-25T00:48:26;10.20;99.90
19164;DHT22;9714;51.208;4.242;2023-04-25T00:50:58;10.20;99.90
19164;DHT22;9714;51.208;4.242;2023-04-25T00:53:31;10.20;99.90
19164;DHT22;9714;51.208;4.242;2023-04-25T00:55:59;10.20;99.90
19164;DHT22;9714;51.208;4.242;2023-04-25T00:58:27;10.10;99.90
19164;DHT22;9714;51.208;4.242;2023-04-25T01:00:55;10.10;99.90
19164;DHT22;9714;51.208;4.242;2023-04-25T01:03:26;10.00;99.90
19164;DHT22;9714;51.208;4.242;2023-04-25T01:05:56;10.20;99.90
19164;DHT22;9714;51.208;4.242;2023-04-25T01:08:30;10.10;99.90
19164;DHT22;9714;51.208;4.242;2023-04-25T01:18:01;10.00;99.90
19164;DHT22;9714;51.208;4.242;2023-04-25T01:20:34;9.80;99.90
19164;DHT22;9714;51.208;4.242;2023-04-25T01:23:03;9.80;99.90
19164;DHT22;9714;51.208;4.242;2023-04-25T01:25:48;9.90;99.90
19164;DHT22;9714;51.208;4.242;2023-04-25T01:28:23;10.00;99.90
19164;DHT22;9714;51.208;4.242;2023-04-25T01:30:57;10.10;99.90
19164;DHT22;9714;51.208;4.242;2023-04-25T01:33:24;10.20;99.90
19164;DHT22;9714;51.208;4.242;2023-04-25T01:36:00;10.20;99.90
19164;DHT22;9714;51.208;4.242;2023-04-25T01:38:31;10.20;99.90
19164;DHT22;9714;51.208;4.242;2023-04-25T01:44:04;10.00;99.90
19164;DHT22;9714;51.208;4.242;2023-04-25T01:46:37;10.30;99.90
19164;DHT22;9714;51.208;4.242;2023-04-25T01:49:04;10.10;99.90
19164;DHT22;9714;51.208;4.242;2023-04-25T01:51:32;10.00;99.90
19164;DHT22;9714;51.208;4.242;2023-04-25T01:54:01;10.00;99.90
19164;DHT22;9714;51.208;4.242;2023-04-25T01:56:30;9.90;99.90
19164;DHT22;9714;51.208;4.242;2023-04-25T01:58:58;9.90;99.90
19164;DHT22;9714;51.208;4.242;2023-04-25T02:01:29;9.90;99.90
19164;DHT22;9714;51.208;4.242;2023-04-25T02:03:56;10.00;99.90
19164;DHT22;9714;51.208;4.242;2023-04-25T02:06:23;10.00;99.90
19164;DHT22;9714;51.208;4.242;2023-04-25T02:08:52;10.10;99.90
19164;DHT22;9714;51.208;4.242;2023-04-25T02:11:21;9.90;99.90
19164;DHT22;9714;51.208;4.242;2023-04-25T02:13:48;10.00;99.90
19164;DHT22;9714;51.208;4.242;2023-04-25T02:16:15;9.90;99.90
19164;DHT22;9714;51.208;4.242;2023-04-25T02:18:43;10.00;99.90
19164;DHT22;9714;51.208;4.242;2023-04-25T02:21:16;10.00;99.90
19164;DHT22;9714;51.208;4.242;2023-04-25T02:23:44;10.20;99.90
19164;DHT22;9714;51.208;4.242;2023-04-25T02:26:16;9.90;99.90
19164;DHT22;9714;51.208;4.242;2023-04-25T02:28:47;10.00;99.90
19164;DHT22;9714;51.208;4.242;2023-04-25T02:31:14;10.00;99.90
19164;DHT22;9714;51.208;4.242;2023-04-25T02:33:41;9.80;99.90
19164;DHT22;9714;51.208;4.242;2023-04-25T02:36:08;9.80;99.90
19164;DHT22;9714;51.208;4.242;2023-04-25T02:38:35;9.80;99.90
19164;DHT22;9714;51.208;4.242;2023-04-25T02:41:02;9.80;99.90
19164;DHT22;9714;51.208;4.242;2023-04-25T02:43:30;9.90;99.90
19164;DHT22;9714;51.208;4.242;2023-04-25T02:45:58;9.80;99.90
19164;DHT22;9714;51.208;4.242;2023-04-25T02:48:25;9.60;99.90
19164;DHT22;9714;51.208;4.242;2023-04-25T02:50:52;9.50;99.90
19164;DHT22;9714;51.208;4.242;2023-04-25T02:53:22;9.80;99.90
19164;DHT22;9714;51.208;4.242;2023-04-25T02:58:43;9.50;99.90
19164;DHT22;9714;51.208;4.242;2023-04-25T03:01:12;9.40;99.90
19164;DHT22;9714;51.208;4.242;2023-04-25T03:03:39;9.50;99.90
19164;DHT22;9714;51.208;4.242;2023-04-25T03:06:06;9.60;99.90
19164;DHT22;9714;51.208;4.242;2023-04-25T03:08:34;9.70;99.90
19164;DHT22;9714;51.208;4.242;2023-04-25T03:11:01;9.60;99.90
19164;DHT22;9714;51.208;4.242;2023-04-25T03:13:28;9.60;99.90
19164;DHT22;9714;51.208;4.242;2023-04-25T03:15:55;9.70;99.90
19164;DHT22;9714;51.208;4.242;2023-04-25T03:18:49;9.50;99.90
19164;DHT22;9714;51.208;4.242;2023-04-25T03:21:16;9.60;99.90
19164;DHT22;9714;51.208;4.242;2023-04-25T03:23:49;9.60;99.90
19164;DHT22;9714;51.208;4.242;2023-04-25T03:26:16;9.70;99.90
19164;DHT22;9714;51.208;4.242;2023-04-25T03:28:45;9.60;99.90
19164;DHT22;9714;51.208;4.242;2023-04-25T03:31:12;9.60;99.90
19164;DHT22;9714;51.208;4.242;2023-04-25T03:33:43;9.20;99.90
19164;DHT22;9714;51.208;4.242;2023-04-25T03:36:12;9.10;99.90
19164;DHT22;9714;51.208;4.242;2023-04-25T03:38:39;9.00;99.90
19164;DHT22;9714;51.208;4.242;2023-04-25T03:41:08;8.80;99.90
19164;DHT22;9714;51.208;4.242;2023-04-25T03:43:38;8.80;99.90
19164;DHT22;9714;51.208;4.242;2023-04-25T03:46:05;8.70;99.90
19164;DHT22;9714;51.208;4.242;2023-04-25T03:48:32;8.90;99.90
19164;DHT22;9714;51.208;4.242;2023-04-25T03:51:00;9.20;99.90
19164;DHT22;9714;51.208;4.242;2023-04-25T03:53:29;8.80;99.90
19164;DHT22;9714;51.208;4.242;2023-04-25T03:55:56;8.70;99.90
19164;DHT22;9714;51.208;4.242;2023-04-25T03:58:23;8.70;99.90
19164;DHT22;9714;51.208;4.242;2023-04-25T04:00:50;8.70;99.90
19164;DHT22;9714;51.208;4.242;2023-04-25T04:03:17;8.70;99.90
19164;DHT22;9714;51.208;4.242;2023-04-25T04:05:45;9.00;99.90
19164;DHT22;9714;51.208;4.242;2023-04-25T04:08:13;9.00;99.90
19164;DHT22;9714;51.208;4.242;2023-04-25T04:10:41;9.00;99.90
19164;DHT22;9714;51.208;4.242;2023-04-25T04:13:08;8.90;99.90
19164;DHT22;9714;51.208;4.242;2023-04-25T04:15:36;9.00;99.90
19164;DHT22;9714;51.208;4.242;2023-04-25T04:18:03;9.10;99.90
19164;DHT22;9714;51.208;4.242;2023-04-25T04:20:30;9.40;99.90
19164;DHT22;9714;51.208;4.242;2023-04-25T04:22:57;9.20;99.90
19164;DHT22;9714;51.208;4.242;2023-04-25T04:25:24;9.20;99.90
19164;DHT22;9714;51.208;4.242;2023-04-25T04:27:53;9.20;99.90
19164;DHT22;9714;51.208;4.242;2023-04-25T04:30:21;9.10;99.90
19164;DHT22;9714;51.208;4.242;2023-04-25T04:32:55;9.20;99.90
19164;DHT22;9714;51.208;4.242;2023-04-25T04:35:22;9.10;99.90
19164;DHT22;9714;51.208;4.242;2023-04-25T04:38:28;9.30;99.90
19164;DHT22;9714;51.208;4.242;2023-04-25T04:40:58;9.10;99.90
19164;DHT22;9714;51.208;4.242;2023-04-25T04:43:26;9.00;99.90
19164;DHT22;9714;51.208;4.242;2023-04-25T04:45:54;9.00;99.90
19164;DHT22;9714;51.208;4.242;2023-04-25T04:48:22;9.00;99.90
19164;DHT22;9714;51.208;4.242;2023-04-25T04:50:49;9.00;99.90
19164;DHT22;9714;51.208;4.242;2023-04-25T04:53:18;9.10;99.90
19164;DHT22;9714;51.208;4.242;2023-04-25T04:55:45;8.90;99.90
19164;DHT22;9714;51.208;4.242;2023-04-25T04:58:13;9.00;99.90
19164;DHT22;9714;51.208;4.242;2023-04-25T05:00:44;9.10;99.90
19164;DHT22;9714;51.208;4.242;2023-04-25T05:03:15;9.00;99.90
19164;DHT22;9714;51.208;4.242;2023-04-25T05:05:42;9.30;99.90
19164;DHT22;9714;51.208;4.242;2023-04-25T05:08:10;9.30;99.90
19164;DHT22;9714;51.208;4.242;2023-04-25T05:10:38;9.10;99.90
19164;DHT22;9714;51.208;4.242;2023-04-25T05:13:05;9.10;99.90
19164;DHT22;9714;51.208;4.242;2023-04-25T05:15:33;9.30;99.90
19164;DHT22;9714;51.208;4.242;2023-04-25T05:18:01;9.00;99.90
19164;DHT22;9714;51.208;4.242;2023-04-25T05:20:29;9.10;99.90
19164;DHT22;9714;51.208;4.242;2023-04-25T05:22:56;9.20;99.90
19164;DHT22;9714;51.208;4.242;2023-04-25T05:25:25;9.20;99.90
19164;DHT22;9714;51.208;4.242;2023-04-25T05:27:52;9.20;99.90
19164;DHT22;9714;51.208;4.242;2023-04-25T05:30:19;9.10;99.90
19164;DHT22;9714;51.208;4.242;2023-04-25T05:32:49;9.20;99.90
19164;DHT22;9714;51.208;4.242;2023-04-25T05:35:18;9.20;99.90
19164;DHT22;9714;51.208;4.242;2023-04-25T05:37:45;9.30;99.90
19164;DHT22;9714;51.208;4.242;2023-04-25T05:40:13;9.30;99.90
19164;DHT22;9714;51.208;4.242;2023-04-25T05:42:42;9.60;99.90
19164;DHT22;9714;51.208;4.242;2023-04-25T05:45:09;9.40;99.90
19164;DHT22;9714;51.208;4.242;2023-04-25T05:47:40;9.30;99.90
19164;DHT22;9714;51.208;4.242;2023-04-25T05:50:08;9.50;99.90
19164;DHT22;9714;51.208;4.242;2023-04-25T05:52:40;9.70;99.90
19164;DHT22;9714;51.208;4.242;2023-04-25T05:55:08;9.80;99.90
19164;DHT22;9714;51.208;4.242;2023-04-25T05:57:36;9.90;99.90
19164;DHT22;9714;51.208;4.242;2023-04-25T06:00:08;9.90;99.90
19164;DHT22;9714;51.208;4.242;2023-04-25T06:02:35;9.90;99.90
19164;DHT22;9714;51.208;4.242;2023-04-25T06:05:02;9.80;99.90
19164;DHT22;9714;51.208;4.242;2023-04-25T06:07:30;9.90;99.90
19164;DHT22;9714;51.208;4.242;2023-04-25T06:09:58;10.10;99.90
19164;DHT22;9714;51.208;4.242;2023-04-25T06:12:27;10.20;99.90
19164;DHT22;9714;51.208;4.242;2023-04-25T06:14:54;10.40;99.90
19164;DHT22;9714;51.208;4.242;2023-04-25T06:17:21;10.60;99.90
19164;DHT22;9714;51.208;4.242;2023-04-25T06:19:48;10.40;99.90
19164;DHT22;9714;51.208;4.242;2023-04-25T06:22:21;10.40;99.90
19164;DHT22;9714;51.208;4.242;2023-04-25T06:24:49;10.30;99.90
19164;DHT22;9714;51.208;4.242;2023-04-25T06:27:18;10.60;99.90
19164;DHT22;9714;51.208;4.242;2023-04-25T06:29:45;10.60;99.90
19164;DHT22;9714;51.208;4.242;2023-04-25T06:32:12;10.70;99.90
19164;DHT22;9714;51.208;4.242;2023-04-25T06:34:39;10.80;99.90
19164;DHT22;9714;51.208;4.242;2023-04-25T06:37:07;10.70;99.90
19164;DHT22;9714;51.208;4.242;2023-04-25T06:39:35;10.80;99.90
19164;DHT22;9714;51.208;4.242;2023-04-25T06:42:02;10.80;99.90
19164;DHT22;9714;51.208;4.242;2023-04-25T06:44:33;10.80;99.90
19164;DHT22;9714;51.208;4.242;2023-04-25T06:47:12;10.70;99.90
19164;DHT22;9714;51.208;4.242;2023-04-25T06:49:47;10.80;99.90
19164;DHT22;9714;51.208;4.242;2023-04-25T06:52:14;10.80;99.90
19164;DHT22;9714;51.208;4.242;2023-04-25T06:54:43;11.10;99.90
19164;DHT22;9714;51.208;4.242;2023-04-25T06:57:10;10.90;99.90
19164;DHT22;9714;51.208;4.242;2023-04-25T06:59:39;10.80;99.90
19164;DHT22;9714;51.208;4.242;2023-04-25T07:02:08;10.60;99.90
19164;DHT22;9714;51.208;4.242;2023-04-25T07:04:35;10.50;99.90
19164;DHT22;9714;51.208;4.242;2023-04-25T07:07:03;10.80;99.90
19164;DHT22;9714;51.208;4.242;2023-04-25T07:09:30;10.90;99.90
19164;DHT22;9714;51.208;4.242;2023-04-25T07:12:00;10.80;99.90
19164;DHT22;9714;51.208;4.242;2023-04-25T07:14:30;11.10;99.90
19164;DHT22;9714;51.208;4.242;2023-04-25T07:16:58;11.70;99.90
19164;DHT22;9714;51.208;4.242;2023-04-25T07:19:25;12.50;99.90
19164;DHT22;9714;51.208;4.242;2023-04-25T07:21:55;12.50;99.90
19164;DHT22;9714;51.208;4.242;2023-04-25T07:24:23;13.10;99.90
19164;DHT22;9714;51.208;4.242;2023-04-25T07:26:50;13.70;99.90
19164;DHT22;9714;51.208;4.242;2023-04-25T07:29:18;14.00;99.90
19164;DHT22;9714;51.208;4.242;2023-04-25T07:31:45;14.40;99.90
19164;DHT22;9714;51.208;4.242;2023-04-25T07:34:13;15.20;99.90
19164;DHT22;9714;51.208;4.242;2023-04-25T07:36:41;15.10;99.90
19164;DHT22;9714;51.208;4.242;2023-04-25T07:39:08;14.30;99.90
19164;DHT22;9714;51.208;4.242;2023-04-25T07:41:35;14.50;99.90
19164;DHT22;9714;51.208;4.242;2023-04-25T07:44:03;14.70;97.50
19164;DHT22;9714;51.208;4.242;2023-04-25T07:46:30;14.60;97.80
19164;DHT22;9714;51.208;4.242;2023-04-25T07:48:59;14.40;99.90
19164;DHT22;9714;51.208;4.242;2023-04-25T07:51:28;14.80;99.90
19164;DHT22;9714;51.208;4.242;2023-04-25T07:53:55;14.80;99.90
19164;DHT22;9714;51.208;4.242;2023-04-25T07:56:22;15.30;99.50
19164;DHT22;9714;51.208;4.242;2023-04-25T07:58:49;16.40;98.80
19164;DHT22;9714;51.208;4.242;2023-04-25T08:01:16;16.90;96.20
19164;DHT22;9714;51.208;4.242;2023-04-25T08:03:44;16.40;96.90
19164;DHT22;9714;51.208;4.242;2023-04-25T08:06:11;16.00;98.40
19164;DHT22;9714;51.208;4.242;2023-04-25T08:08:40;15.40;98.50
19164;DHT22;9714;51.208;4.242;2023-04-25T08:11:07;15.30;97.60
19164;DHT22;9714;51.208;4.242;2023-04-25T08:13:34;14.10;99.10
19164;DHT22;9714;51.208;4.242;2023-04-25T08:16:03;13.00;99.90
19164;DHT22;9714;51.208;4.242;2023-04-25T08:18:31;12.90;99.90
19164;DHT22;9714;51.208;4.242;2023-04-25T08:20:58;12.80;99.90
19164;DHT22;9714;51.208;4.242;2023-04-25T08:23:25;12.60;99.90
19164;DHT22;9714;51.208;4.242;2023-04-25T08:25:53;12.30;99.90
19164;DHT22;9714;51.208;4.242;2023-04-25T08:28:20;12.20;99.90
19164;DHT22;9714;51.208;4.242;2023-04-25T08:30:48;12.40;99.90
19164;DHT22;9714;51.208;4.242;2023-04-25T08:33:15;12.50;99.90
19164;DHT22;9714;51.208;4.242;2023-04-25T08:35:42;12.20;99.90
19164;DHT22;9714;51.208;4.242;2023-04-25T08:38:09;12.30;99.90
19164;DHT22;9714;51.208;4.242;2023-04-25T08:40:38;12.20;99.90
19164;DHT22;9714;51.208;4.242;2023-04-25T08:43:07;12.00;99.90
19164;DHT22;9714;51.208;4.242;2023-04-25T08:45:39;12.10;99.90
19164;DHT22;9714;51.208;4.242;2023-04-25T08:48:11;12.60;99.90
19164;DHT22;9714;51.208;4.242;2023-04-25T08:50:39;13.40;99.90
19164;DHT22;9714;51.208;4.242;2023-04-25T08:53:09;14.10;99.90
19164;DHT22;9714;51.208;4.242;2023-04-25T08:55:41;14.20;99.90
19164;DHT22;9714;51.208;4.242;2023-04-25T08:58:11;14.20;98.70
19164;DHT22;9714;51.208;4.242;2023-04-25T09:00:39;14.50;97.70
19164;DHT22;9714;51.208;4.242;2023-04-25T09:03:07;15.50;94.60
19164;DHT22;9714;51.208;4.242;2023-04-25T09:05:35;15.80;92.70
19164;DHT22;9714;51.208;4.242;2023-04-25T09:08:02;17.20;91.20
19164;DHT22;9714;51.208;4.242;2023-04-25T09:10:29;17.60;85.80
19164;DHT22;9714;51.208;4.242;2023-04-25T09:13:03;18.10;87.40
19164;DHT22;9714;51.208;4.242;2023-04-25T09:15:33;18.00;83.60
19164;DHT22;9714;51.208;4.242;2023-04-25T09:18:01;16.70;85.40
19164;DHT22;9714;51.208;4.242;2023-04-25T09:20:29;17.40;87.40
19164;DHT22;9714;51.208;4.242;2023-04-25T09:23:02;17.40;86.80
19164;DHT22;9714;51.208;4.242;2023-04-25T09:25:34;17.00;85.70
19164;DHT22;9714;51.208;4.242;2023-04-25T09:28:06;16.70;87.00
19164;DHT22;9714;51.208;4.242;2023-04-25T09:30:36;16.70;86.50
19164;DHT22;9714;51.208;4.242;2023-04-25T09:33:06;16.00;89.70
19164;DHT22;9714;51.208;4.242;2023-04-25T09:35:37;15.30;91.20
19164;DHT22;9714;51.208;4.242;2023-04-25T09:38:09;14.50;92.90
19164;DHT22;9714;51.208;4.242;2023-04-25T09:40:40;13.80;95.40
19164;DHT22;9714;51.208;4.242;2023-04-25T09:43:10;13.60;97.40
19164;DHT22;9714;51.208;4.242;2023-04-25T09:45:46;14.40;96.70
19164;DHT22;9714;51.208;4.242;2023-04-25T09:48:17;14.00;96.90
19164;DHT22;9714;51.208;4.242;2023-04-25T09:50:45;14.10;98.40
19164;DHT22;9714;51.208;4.242;2023-04-25T09:53:16;13.40;99.40
19164;DHT22;9714;51.208;4.242;2023-04-25T09:55:44;13.40;99.60
19164;DHT22;9714;51.208;4.242;2023-04-25T09:58:13;13.10;99.60
19164;DHT22;9714;51.208;4.242;2023-04-25T10:00:42;13.10;99.90
19164;DHT22;9714;51.208;4.242;2023-04-25T10:03:11;13.10;99.90
19164;DHT22;9714;51.208;4.242;2023-04-25T10:05:39;13.00;98.60
19164;DHT22;9714;51.208;4.242;2023-04-25T10:08:08;12.70;99.20
19164;DHT22;9714;51.208;4.242;2023-04-25T10:10:36;12.80;99.90
19164;DHT22;9714;51.208;4.242;2023-04-25T10:13:07;12.80;99.90
19164;DHT22;9714;51.208;4.242;2023-04-25T10:15:40;12.60;98.90
19164;DHT22;9714;51.208;4.242;2023-04-25T10:18:16;12.70;99.90
19164;DHT22;9714;51.208;4.242;2023-04-25T10:20:44;12.90;98.70
19164;DHT22;9714;51.208;4.242;2023-04-25T10:23:13;12.90;99.40
19164;DHT22;9714;51.208;4.242;2023-04-25T10:25:42;13.10;97.10
19164;DHT22;9714;51.208;4.242;2023-04-25T10:28:12;13.40;96.40
19164;DHT22;9714;51.208;4.242;2023-04-25T10:30:57;13.60;96.50
19164;DHT22;9714;51.208;4.242;2023-04-25T10:33:37;15.40;94.80
19164;DHT22;9714;51.208;4.242;2023-04-25T10:36:15;17.50;83.40
19164;DHT22;9714;51.208;4.242;2023-04-25T10:38:50;18.20;78.40
19164;DHT22;9714;51.208;4.242;2023-04-25T10:41:24;19.00;76.70
19164;DHT22;9714;51.208;4.242;2023-04-25T10:43:58;19.90;67.90
19164;DHT22;9714;51.208;4.242;2023-04-25T10:46:28;20.10;62.90
19164;DHT22;9714;51.208;4.242;2023-04-25T10:49:00;19.90;61.10
19164;DHT22;9714;51.208;4.242;2023-04-25T10:51:30;18.50;62.70
19164;DHT22;9714;51.208;4.242;2023-04-25T10:54:00;17.90;63.20
19164;DHT22;9714;51.208;4.242;2023-04-25T10:56:29;17.90;65.20
19164;DHT22;9714;51.208;4.242;2023-04-25T10:59:06;18.70;63.20
19164;DHT22;9714;51.208;4.242;2023-04-25T11:01:39;20.10;59.50
19164;DHT22;9714;51.208;4.242;2023-04-25T11:04:19;20.80;59.10
19164;DHT22;9714;51.208;4.242;2023-04-25T11:09:33;21.20;58.90
19164;DHT22;9714;51.208;4.242;2023-04-25T11:12:01;20.10;58.90
19164;DHT22;9714;51.208;4.242;2023-04-25T11:14:29;19.10;59.70
19164;DHT22;9714;51.208;4.242;2023-04-25T11:16:57;19.00;60.00
19164;DHT22;9714;51.208;4.242;2023-04-25T11:19:29;20.40;59.20
19164;DHT22;9714;51.208;4.242;2023-04-25T11:21:56;20.90;54.50
19164;DHT22;9714;51.208;4.242;2023-04-25T11:24:26;18.90;56.20
19164;DHT22;9714;51.208;4.242;2023-04-25T11:26:55;19.90;56.60
19164;DHT22;9714;51.208;4.242;2023-04-25T11:29:22;20.20;56.30
19164;DHT22;9714;51.208;4.242;2023-04-25T11:31:50;19.70;56.20
19164;DHT22;9714;51.208;4.242;2023-04-25T11:34:19;18.80;58.30
19164;DHT22;9714;51.208;4.242;2023-04-25T11:36:48;17.70;62.80
19164;DHT22;9714;51.208;4.242;2023-04-25T11:39:18;16.30;68.70
19164;DHT22;9714;51.208;4.242;2023-04-25T11:41:46;15.80;73.40
19164;DHT22;9714;51.208;4.242;2023-04-25T11:44:15;16.50;73.00
19164;DHT22;9714;51.208;4.242;2023-04-25T11:46:44;17.20;71.10
19164;DHT22;9714;51.208;4.242;2023-04-25T11:49:12;16.70;70.20
19164;DHT22;9714;51.208;4.242;2023-04-25T11:51:40;16.50;71.10
19164;DHT22;9714;51.208;4.242;2023-04-25T11:54:10;16.90;70.30
19164;DHT22;9714;51.208;4.242;2023-04-25T11:56:41;16.70;69.70
19164;DHT22;9714;51.208;4.242;2023-04-25T11:59:09;17.50;70.40
19164;DHT22;9714;51.208;4.242;2023-04-25T12:01:49;18.20;68.10
19164;DHT22;9714;51.208;4.242;2023-04-25T12:04:17;18.20;68.10
19164;DHT22;9714;51.208;4.242;2023-04-25T12:06:46;19.20;67.90
19164;DHT22;9714;51.208;4.242;2023-04-25T12:09:19;19.30;65.70
19164;DHT22;9714;51.208;4.242;2023-04-25T12:11:48;20.00;62.30
19164;DHT22;9714;51.208;4.242;2023-04-25T12:14:23;20.20;62.10
19164;DHT22;9714;51.208;4.242;2023-04-25T12:16:51;19.70;60.70
19164;DHT22;9714;51.208;4.242;2023-04-25T12:19:19;18.80;64.20
19164;DHT22;9714;51.208;4.242;2023-04-25T12:22:00;18.00;63.60
19164;DHT22;9714;51.208;4.242;2023-04-25T12:24:35;16.70;67.10
19164;DHT22;9714;51.208;4.242;2023-04-25T12:27:05;15.60;70.50
19164;DHT22;9714;51.208;4.242;2023-04-25T12:29:36;15.50;73.80
19164;DHT22;9714;51.208;4.242;2023-04-25T12:32:09;15.10;75.70
19164;DHT22;9714;51.208;4.242;2023-04-25T12:34:36;15.10;73.20
19164;DHT22;9714;51.208;4.242;2023-04-25T12:37:09;15.60;74.60
19164;DHT22;9714;51.208;4.242;2023-04-25T12:39:39;16.00;72.70
19164;DHT22;9714;51.208;4.242;2023-04-25T12:42:07;15.60;69.50
19164;DHT22;9714;51.208;4.242;2023-04-25T12:44:43;15.30;69.80
19164;DHT22;9714;51.208;4.242;2023-04-25T12:47:10;15.50;70.20
19164;DHT22;9714;51.208;4.242;2023-04-25T12:49:40;15.10;70.00
19164;DHT22;9714;51.208;4.242;2023-04-25T12:52:09;15.30;72.10
19164;DHT22;9714;51.208;4.242;2023-04-25T12:54:39;15.80;70.30
19164;DHT22;9714;51.208;4.242;2023-04-25T12:57:07;16.30;68.60
19164;DHT22;9714;51.208;4.242;2023-04-25T12:59:37;17.60;69.30
19164;DHT22;9714;51.208;4.242;2023-04-25T13:02:05;19.00;66.80
19164;DHT22;9714;51.208;4.242;2023-04-25T13:04:33;18.30;66.40
19164;DHT22;9714;51.208;4.242;2023-04-25T13:07:03;18.30;64.10
19164;DHT22;9714;51.208;4.242;2023-04-25T13:09:32;18.30;65.00
19164;DHT22;9714;51.208;4.242;2023-04-25T13:22:03;18.50;60.40
19164;DHT22;9714;51.208;4.242;2023-04-25T13:24:39;19.90;59.90
19164;DHT22;9714;51.208;4.242;2023-04-25T13:27:43;19.90;58.50
19164;DHT22;9714;51.208;4.242;2023-04-25T13:30:15;18.50;60.10
19164;DHT22;9714;51.208;4.242;2023-04-25T13:32:42;17.00;62.20
19164;DHT22;9714;51.208;4.242;2023-04-25T13:35:20;16.60;64.40
19164;DHT22;9714;51.208;4.242;2023-04-25T13:38:08;15.90;65.70
19164;DHT22;9714;51.208;4.242;2023-04-25T13:40:50;16.20;67.00
19164;DHT22;9714;51.208;4.242;2023-04-25T13:43:37;16.40;65.60
19164;DHT22;9714;51.208;4.242;2023-04-25T13:46:05;15.90;65.80
19164;DHT22;9714;51.208;4.242;2023-04-25T13:48:39;16.10;65.00
19164;DHT22;9714;51.208;4.242;2023-04-25T13:51:13;16.50;64.50
19164;DHT22;9714;51.208;4.242;2023-04-25T13:53:42;17.60;64.50
19164;DHT22;9714;51.208;4.242;2023-04-25T13:56:10;17.10;62.90
19164;DHT22;9714;51.208;4.242;2023-04-25T13:58:38;17.00;63.90
19164;DHT22;9714;51.208;4.242;2023-04-25T14:01:05;16.40;65.30
19164;DHT22;9714;51.208;4.242;2023-04-25T14:03:32;16.40;66.60
19164;DHT22;9714;51.208;4.242;2023-04-25T14:06:02;16.40;65.90
19164;DHT22;9714;51.208;4.242;2023-04-25T14:08:30;16.50;64.70
19164;DHT22;9714;51.208;4.242;2023-04-25T14:11:04;16.70;65.20
19164;DHT22;9714;51.208;4.242;2023-04-25T14:13:33;16.40;65.80
19164;DHT22;9714;51.208;4.242;2023-04-25T14:16:01;17.40;66.00
19164;DHT22;9714;51.208;4.242;2023-04-25T14:18:31;18.50;60.50
19164;DHT22;9714;51.208;4.242;2023-04-25T14:20:58;19.20;59.90
19164;DHT22;9714;51.208;4.242;2023-04-25T14:23:26;19.30;59.00
19164;DHT22;9714;51.208;4.242;2023-04-25T14:25:54;19.50;58.80
19164;DHT22;9714;51.208;4.242;2023-04-25T14:28:22;20.90;58.70
19164;DHT22;9714;51.208;4.242;2023-04-25T14:30:53;21.50;57.00
19164;DHT22;9714;51.208;4.242;2023-04-25T14:33:23;21.30;54.90
19164;DHT22;9714;51.208;4.242;2023-04-25T14:35:50;20.70;56.40
19164;DHT22;9714;51.208;4.242;2023-04-25T14:38:19;20.30;57.30
19164;DHT22;9714;51.208;4.242;2023-04-25T14:40:49;19.40;57.20
19164;DHT22;9714;51.208;4.242;2023-04-25T14:43:16;20.10;58.50
19164;DHT22;9714;51.208;4.242;2023-04-25T14:45:46;20.30;56.50
19164;DHT22;9714;51.208;4.242;2023-04-25T14:48:19;18.90;57.10
19164;DHT22;9714;51.208;4.242;2023-04-25T14:50:48;18.00;57.70
19164;DHT22;9714;51.208;4.242;2023-04-25T14:53:15;16.50;59.80
19164;DHT22;9714;51.208;4.242;2023-04-25T14:55:43;17.00;61.80
19164;DHT22;9714;51.208;4.242;2023-04-25T14:58:11;18.00;61.00
19164;DHT22;9714;51.208;4.242;2023-04-25T15:00:40;19.00;59.60
19164;DHT22;9714;51.208;4.242;2023-04-25T15:03:13;19.50;58.50
19164;DHT22;9714;51.208;4.242;2023-04-25T15:05:43;18.50;58.10
19164;DHT22;9714;51.208;4.242;2023-04-25T15:08:10;17.60;59.50
19164;DHT22;9714;51.208;4.242;2023-04-25T15:10:51;16.30;60.80
19164;DHT22;9714;51.208;4.242;2023-04-25T15:13:22;16.70;60.10
19164;DHT22;9714;51.208;4.242;2023-04-25T15:15:53;17.50;61.20
19164;DHT22;9714;51.208;4.242;2023-04-25T15:18:25;18.00;62.10
19164;DHT22;9714;51.208;4.242;2023-04-25T15:20:58;17.60;63.00
19164;DHT22;9714;51.208;4.242;2023-04-25T15:23:26;17.20;63.30
19164;DHT22;9714;51.208;4.242;2023-04-25T15:25:53;17.70;63.40
19164;DHT22;9714;51.208;4.242;2023-04-25T15:28:22;18.40;61.50
19164;DHT22;9714;51.208;4.242;2023-04-25T15:30:50;18.60;60.40
19164;DHT22;9714;51.208;4.242;2023-04-25T15:33:28;18.40;60.70
19164;DHT22;9714;51.208;4.242;2023-04-25T15:35:55;16.90;62.30
19164;DHT22;9714;51.208;4.242;2023-04-25T15:38:35;15.70;63.50
19164;DHT22;9714;51.208;4.242;2023-04-25T15:41:10;16.60;64.80
19164;DHT22;9714;51.208;4.242;2023-04-25T15:43:43;16.60;64.20
19164;DHT22;9714;51.208;4.242;2023-04-25T15:46:16;15.50;63.40
19164;DHT22;9714;51.208;4.242;2023-04-25T15:48:51;15.10;65.60
19164;DHT22;9714;51.208;4.242;2023-04-25T15:51:19;15.50;66.20
19164;DHT22;9714;51.208;4.242;2023-04-25T15:53:49;16.20;65.50
19164;DHT22;9714;51.208;4.242;2023-04-25T15:56:17;16.20;63.70
19164;DHT22;9714;51.208;4.242;2023-04-25T15:58:52;15.90;63.40
19164;DHT22;9714;51.208;4.242;2023-04-25T16:01:45;16.10;62.40
19164;DHT22;9714;51.208;4.242;2023-04-25T16:04:21;16.50;62.20
19164;DHT22;9714;51.208;4.242;2023-04-25T16:06:50;16.90;62.10
19164;DHT22;9714;51.208;4.242;2023-04-25T16:12:32;16.30;61.60
19164;DHT22;9714;51.208;4.242;2023-04-25T16:15:03;16.10;62.00
19164;DHT22;9714;51.208;4.242;2023-04-25T16:17:32;16.20;63.70
19164;DHT22;9714;51.208;4.242;2023-04-25T16:20:02;16.60;64.80
19164;DHT22;9714;51.208;4.242;2023-04-25T16:22:35;17.20;65.50
19164;DHT22;9714;51.208;4.242;2023-04-25T16:25:03;17.30;64.10
19164;DHT22;9714;51.208;4.242;2023-04-25T16:27:30;17.70;63.40
19164;DHT22;9714;51.208;4.242;2023-04-25T16:30:06;17.70;63.60
19164;DHT22;9714;51.208;4.242;2023-04-25T16:32:41;17.60;64.10
19164;DHT22;9714;51.208;4.242;2023-04-25T16:35:12;17.30;63.20